createdAt,value
2023-12-17T00:02:16.852Z,97.18
2023-12-17T00:05:19.585Z,96.81
2023-12-17T00:08:23.906Z,96.42
2023-12-17T00:11:26.711Z,96.71
2023-12-17T00:14:29.440Z,96.41
2023-12-17T00:17:32.501Z,96.39
2023-12-17T00:20:35.427Z,96.44
2023-12-17T00:23:39.615Z,96.53
2023-12-17T00:26:42.363Z,96.08
2023-12-17T00:29:45.438Z,95.97
2023-12-17T00:32:49.713Z,96.09
2023-12-17T00:35:53.451Z,95.82
2023-12-17T00:38:57.460Z,95.72
2023-12-17T00:42:00.503Z,95.71
2023-12-17T00:45:03.369Z,95.96
2023-12-17T00:48:06.401Z,95.27
2023-12-17T00:51:12.253Z,95.30
2023-12-17T00:54:16.438Z,95.43
2023-12-17T00:57:19.736Z,95.39
2023-12-17T01:00:22.917Z,96.21
2023-12-17T01:03:25.799Z,97.85
2023-12-17T01:06:28.667Z,98.69
2023-12-17T01:09:32.754Z,99.17
2023-12-17T01:12:35.473Z,99.55
2023-12-17T01:15:38.765Z,99.40
2023-12-17T01:18:41.737Z,99.45
2023-12-17T01:21:44.535Z,99.44
2023-12-17T01:24:50.758Z,99.32
2023-12-17T01:27:53.474Z,99.63
2023-12-17T01:30:56.275Z,100.00
2023-12-17T01:33:59.197Z,100.00
2023-12-17T01:37:02.027Z,100.00
2023-12-17T01:40:07.958Z,100.00
2023-12-17T01:43:10.945Z,100.00
2023-12-17T01:46:13.972Z,100.00
2023-12-17T01:49:16.857Z,100.00
2023-12-17T01:52:19.986Z,100.00
2023-12-17T01:55:24.367Z,100.00
2023-12-17T01:58:27.356Z,100.00
2023-12-17T02:01:30.673Z,100.00
2023-12-17T02:04:33.918Z,100.00
2023-12-17T02:07:37.264Z,100.00
2023-12-17T02:10:41.553Z,100.00
2023-12-17T02:13:44.251Z,100.00
2023-12-17T02:16:46.997Z,100.00
2023-12-17T02:19:49.947Z,100.00
2023-12-17T02:22:58.656Z,100.00
2023-12-17T02:26:04.594Z,100.00
2023-12-17T02:29:07.380Z,100.00
2023-12-17T02:32:10.109Z,100.00
2023-12-17T02:35:12.847Z,100.00
2023-12-17T02:38:15.680Z,100.00
2023-12-17T02:41:21.512Z,100.00
2023-12-17T02:44:24.703Z,100.00
2023-12-17T02:47:27.478Z,100.00
2023-12-17T02:50:30.417Z,100.00
2023-12-17T02:53:33.261Z,100.00
2023-12-17T02:56:41.223Z,100.00
2023-12-17T02:59:44.028Z,100.00
2023-12-17T03:02:47.056Z,100.00
2023-12-17T03:05:50.057Z,100.00
2023-12-17T03:08:53.264Z,100.00
2023-12-17T03:11:57.671Z,100.00
2023-12-17T03:15:00.607Z,100.00
2023-12-17T03:18:04.778Z,100.00
2023-12-17T03:21:09.629Z,100.00
2023-12-17T03:24:12.415Z,100.00
2023-12-17T03:27:16.815Z,100.00
2023-12-17T03:30:20.062Z,100.00
2023-12-17T03:33:23.226Z,100.00
2023-12-17T03:36:26.493Z,100.00
2023-12-17T03:39:29.389Z,100.00
2023-12-17T03:42:33.577Z,100.00
2023-12-17T03:45:36.864Z,100.00
2023-12-17T03:48:39.765Z,100.00
2023-12-17T03:51:42.571Z,100.00
2023-12-17T03:54:45.804Z,100.00
2023-12-17T03:57:50.083Z,100.00
2023-12-17T04:00:52.854Z,100.00
2023-12-17T04:03:55.920Z,100.00
2023-12-17T04:06:58.774Z,100.00
2023-12-17T04:10:02.776Z,100.00
2023-12-17T04:13:06.900Z,100.00
2023-12-17T04:16:10.096Z,100.00
2023-12-17T04:19:12.957Z,100.00
2023-12-17T04:22:15.771Z,100.00
2023-12-17T04:25:18.529Z,100.00
2023-12-17T04:28:22.631Z,100.00
2023-12-17T04:31:25.474Z,100.00
2023-12-17T04:34:28.491Z,100.00
2023-12-17T04:37:31.440Z,100.00
2023-12-17T04:40:34.201Z,100.00
2023-12-17T04:43:38.308Z,100.00
2023-12-17T04:46:41.219Z,100.00
2023-12-17T04:49:44.046Z,100.00
2023-12-17T04:52:46.949Z,100.00
2023-12-17T04:55:49.763Z,100.00
2023-12-17T04:58:53.886Z,100.00
2023-12-17T05:01:56.663Z,100.00
2023-12-17T05:04:59.587Z,100.00
2023-12-17T05:08:02.724Z,100.00
2023-12-17T05:11:05.853Z,100.00
2023-12-17T05:14:10.519Z,100.00
2023-12-17T05:17:13.356Z,100.00
2023-12-17T05:20:16.338Z,100.00
2023-12-17T05:23:19.086Z,100.00
2023-12-17T05:26:21.911Z,100.00
2023-12-17T05:29:26.060Z,100.00
2023-12-17T05:32:28.824Z,100.00
2023-12-17T05:35:31.618Z,100.00
2023-12-17T05:38:34.891Z,100.00
2023-12-17T05:41:37.658Z,100.00
2023-12-17T05:44:41.779Z,100.00
2023-12-17T05:47:44.993Z,100.00
2023-12-17T05:50:49.033Z,100.00
2023-12-17T05:53:52.079Z,100.00
2023-12-17T05:56:55.521Z,100.00
2023-12-17T05:59:59.696Z,100.00
2023-12-17T06:03:02.533Z,100.00
2023-12-17T06:06:07.643Z,100.00
2023-12-17T06:09:10.753Z,100.00
2023-12-17T06:12:13.667Z,100.00
2023-12-17T06:15:18.117Z,100.00
2023-12-17T06:18:21.125Z,100.00
2023-12-17T06:21:25.702Z,100.00
2023-12-17T06:24:28.610Z,100.00
2023-12-17T06:27:32.843Z,100.00
2023-12-17T06:30:37.788Z,100.00
2023-12-17T06:33:40.854Z,100.00
2023-12-17T06:36:43.656Z,100.00
2023-12-17T06:39:46.677Z,100.00
2023-12-17T06:42:49.443Z,100.00
2023-12-17T06:45:53.725Z,100.00
2023-12-17T06:48:56.590Z,100.00
2023-12-17T06:51:59.506Z,100.00
2023-12-17T06:55:02.398Z,100.00
2023-12-17T06:58:05.784Z,100.00
2023-12-17T07:01:11.841Z,100.00
2023-12-17T07:04:14.885Z,100.00
2023-12-17T07:07:17.904Z,100.00
2023-12-17T07:10:21.711Z,100.00
2023-12-17T07:13:24.462Z,100.00
2023-12-17T07:16:30.360Z,100.00
2023-12-17T07:19:33.170Z,100.00
2023-12-17T07:22:36.020Z,100.00
2023-12-17T07:25:38.889Z,100.00
2023-12-17T07:28:41.784Z,100.00
2023-12-17T07:31:45.919Z,100.00
2023-12-17T07:34:48.695Z,100.00
2023-12-17T07:37:51.445Z,100.00
2023-12-17T07:40:55.376Z,100.00
2023-12-17T07:43:59.059Z,100.00
2023-12-17T07:47:04.352Z,100.00
2023-12-17T07:50:09.273Z,100.00
2023-12-17T07:53:12.028Z,100.00
2023-12-17T07:56:14.919Z,100.00
2023-12-17T07:59:18.009Z,100.00
2023-12-17T08:02:22.205Z,99.98
2023-12-17T08:05:24.992Z,99.60
2023-12-17T08:08:27.727Z,99.95
2023-12-17T08:11:30.590Z,100.00
2023-12-17T08:14:33.433Z,100.00
2023-12-17T08:17:37.740Z,100.00
2023-12-17T08:20:40.592Z,100.00
2023-12-17T08:23:43.356Z,100.00
2023-12-17T08:26:46.998Z,100.00
2023-12-17T08:29:52.330Z,100.00
2023-12-17T08:32:56.731Z,100.00
2023-12-17T08:35:59.557Z,100.00
2023-12-17T08:39:02.466Z,100.00
2023-12-17T08:42:05.811Z,100.00
2023-12-17T08:45:09.872Z,100.00
2023-12-17T08:48:14.392Z,100.00
2023-12-17T08:51:18.449Z,100.00
2023-12-17T08:54:21.231Z,99.75
2023-12-17T08:57:24.026Z,100.00
2023-12-17T09:00:26.906Z,100.00
2023-12-17T09:03:31.104Z,99.50
2023-12-17T09:06:33.969Z,99.15
2023-12-17T09:09:36.734Z,99.78
2023-12-17T09:12:39.517Z,99.92
2023-12-17T09:15:42.475Z,99.89
2023-12-17T09:18:46.738Z,100.00
2023-12-17T09:21:49.589Z,100.00
2023-12-17T09:24:52.432Z,100.00
2023-12-17T09:27:55.283Z,99.82
2023-12-17T09:30:58.165Z,100.00
2023-12-17T09:34:02.365Z,98.94
2023-12-17T09:37:05.519Z,97.48
2023-12-17T09:40:10.198Z,98.16
2023-12-17T09:43:13.041Z,98.93
2023-12-17T09:46:15.960Z,98.21
2023-12-17T09:49:20.291Z,98.39
2023-12-17T09:52:29.876Z,98.45
2023-12-17T09:55:32.834Z,98.67
2023-12-17T09:58:35.593Z,99.93
2023-12-17T10:01:38.385Z,99.61
2023-12-17T10:04:42.631Z,99.07
2023-12-17T10:07:45.979Z,98.43
2023-12-17T10:10:48.997Z,97.44
2023-12-17T10:13:53.032Z,96.75
2023-12-17T10:16:56.004Z,96.68
2023-12-17T10:20:00.895Z,95.94
2023-12-17T10:23:04.822Z,95.85
2023-12-17T10:26:08.243Z,95.94
2023-12-17T10:29:14.657Z,96.20
2023-12-17T10:32:22.493Z,96.96
2023-12-17T10:35:27.597Z,97.20
2023-12-17T10:38:31.081Z,96.79
2023-12-17T10:41:35.173Z,96.87
2023-12-17T10:44:39.754Z,97.04
2023-12-17T10:47:43.077Z,97.74
2023-12-17T10:50:50.471Z,96.40
2023-12-17T10:53:53.373Z,95.99
2023-12-17T10:56:58.660Z,95.73
2023-12-17T11:00:02.826Z,95.75
2023-12-17T11:03:08.289Z,95.76
2023-12-17T11:06:12.827Z,96.16
2023-12-17T11:09:18.164Z,94.92
2023-12-17T11:12:21.101Z,95.63
2023-12-17T11:15:25.266Z,95.58
2023-12-17T11:18:43.521Z,96.55
2023-12-17T11:21:47.876Z,96.38
2023-12-17T11:24:51.018Z,96.29
2023-12-17T11:27:54.931Z,96.56
2023-12-17T11:30:58.253Z,97.05
2023-12-17T11:34:02.299Z,97.13
2023-12-17T11:37:06.615Z,96.54
2023-12-17T11:40:11.089Z,96.22
2023-12-17T11:43:14.170Z,96.33
2023-12-17T11:46:16.966Z,95.25
2023-12-17T11:49:24.928Z,95.62
2023-12-17T11:52:30.152Z,95.54
2023-12-17T11:55:45.754Z,95.69
2023-12-17T11:58:49.134Z,94.40
2023-12-17T12:01:54.563Z,94.56
2023-12-17T12:04:57.552Z,95.75
2023-12-17T12:08:02.531Z,95.98
2023-12-17T12:11:06.190Z,95.36
2023-12-17T12:14:10.269Z,96.05
2023-12-17T12:17:49.050Z,96.11
2023-12-17T12:20:53.341Z,95.12
2023-12-17T12:23:58.387Z,95.38
2023-12-17T12:27:06.474Z,93.86
2023-12-17T12:30:25.938Z,94.26
2023-12-17T12:33:31.669Z,94.45
2023-12-17T12:36:44.894Z,94.08
2023-12-17T12:39:59.941Z,93.83
2023-12-17T12:43:06.435Z,94.05
2023-12-17T12:46:09.807Z,93.45
2023-12-17T12:49:12.723Z,93.76
2023-12-17T12:52:16.538Z,93.92
2023-12-17T12:55:20.637Z,93.83
2023-12-17T12:58:24.082Z,94.48
2023-12-17T13:01:27.129Z,94.11
2023-12-17T13:04:29.965Z,94.28
2023-12-17T13:07:34.151Z,94.20
2023-12-17T13:10:38.392Z,94.19
2023-12-17T13:13:41.274Z,92.80
2023-12-17T13:16:44.057Z,92.49
2023-12-17T13:19:46.951Z,93.46
2023-12-17T13:22:50.019Z,93.54
2023-12-17T13:25:58.188Z,93.11
2023-12-17T13:29:04.253Z,94.07
2023-12-17T13:32:07.766Z,94.19
2023-12-17T13:35:11.248Z,94.17
2023-12-17T13:38:14.160Z,93.86
2023-12-17T13:41:19.484Z,94.08
2023-12-17T13:44:22.270Z,93.78
2023-12-17T13:47:25.454Z,93.75
2023-12-17T13:50:28.233Z,93.76
2023-12-17T13:53:30.978Z,93.90
2023-12-17T13:56:39.167Z,93.30
2023-12-17T13:59:43.910Z,93.41
2023-12-17T14:02:46.678Z,93.43
2023-12-17T14:05:49.524Z,93.11
2023-12-17T14:08:52.553Z,94.02
2023-12-17T14:11:56.766Z,94.50
2023-12-17T14:15:00.762Z,94.01
2023-12-17T14:18:04.991Z,94.54
2023-12-17T14:21:08.804Z,94.67
2023-12-17T14:24:11.636Z,95.19
2023-12-17T14:27:16.083Z,95.10
2023-12-17T14:30:19.046Z,95.40
2023-12-17T14:33:22.046Z,95.17
2023-12-17T14:36:25.143Z,95.58
2023-12-17T14:39:27.948Z,95.63
2023-12-17T14:42:32.076Z,96.10
2023-12-17T14:45:35.127Z,95.91
2023-12-17T14:48:38.065Z,96.42
2023-12-17T14:51:40.918Z,95.55
2023-12-17T14:54:44.169Z,95.35
2023-12-17T14:57:48.627Z,95.64
2023-12-17T15:00:51.870Z,95.74
2023-12-17T15:03:55.471Z,96.22
2023-12-17T15:06:58.557Z,96.56
2023-12-17T15:10:02.555Z,97.11
2023-12-17T15:13:06.920Z,97.10
2023-12-17T15:16:10.212Z,97.63
2023-12-17T15:19:13.365Z,97.76
2023-12-17T15:22:16.780Z,97.69
2023-12-17T15:25:20.517Z,98.22
2023-12-17T15:28:25.375Z,98.40
2023-12-17T15:31:29.922Z,98.38
2023-12-17T15:34:32.794Z,98.46
2023-12-17T15:37:35.557Z,98.74
2023-12-17T15:40:40.597Z,99.10
2023-12-17T15:43:44.811Z,99.47
2023-12-17T15:46:47.560Z,99.47
2023-12-17T15:49:50.360Z,99.53
2023-12-17T15:52:53.109Z,99.52
2023-12-17T15:55:56.014Z,99.94
2023-12-17T15:59:00.166Z,99.99
2023-12-17T16:02:04.354Z,99.81
2023-12-17T16:05:08.074Z,99.96
2023-12-17T16:08:10.880Z,99.67
2023-12-17T16:11:13.713Z,100.00
2023-12-17T16:14:17.859Z,100.00
2023-12-17T16:17:20.970Z,100.00
2023-12-17T16:20:25.468Z,100.00
2023-12-17T16:23:28.450Z,100.00
2023-12-17T16:26:31.420Z,100.00
2023-12-17T16:29:35.584Z,100.00
2023-12-17T16:32:39.992Z,100.00
2023-12-17T16:35:44.357Z,100.00
2023-12-17T16:38:47.238Z,100.00
2023-12-17T16:41:50.000Z,100.00
2023-12-17T16:44:54.335Z,100.00
2023-12-17T16:47:57.594Z,100.00
2023-12-17T16:51:00.625Z,100.00
2023-12-17T16:54:03.507Z,100.00
2023-12-17T16:57:06.884Z,100.00
2023-12-17T17:00:11.891Z,100.00
2023-12-17T17:03:14.839Z,100.00
2023-12-17T17:06:17.630Z,100.00
2023-12-17T17:09:20.728Z,100.00
2023-12-17T17:12:23.688Z,100.00
2023-12-17T17:15:27.932Z,100.00
2023-12-17T17:18:31.876Z,100.00
2023-12-17T17:21:35.109Z,100.00
2023-12-17T17:24:38.118Z,100.00
2023-12-17T17:27:41.171Z,100.00
2023-12-17T17:30:45.547Z,100.00
2023-12-17T17:33:49.907Z,100.00
2023-12-17T17:36:54.208Z,100.00
2023-12-17T17:39:58.839Z,100.00
2023-12-17T17:43:02.890Z,100.00
2023-12-17T17:46:07.786Z,100.00
2023-12-17T17:49:11.214Z,100.00
2023-12-17T17:52:14.070Z,100.00
2023-12-17T17:55:16.882Z,100.00
2023-12-17T17:58:19.639Z,100.00
2023-12-17T18:01:23.786Z,100.00
2023-12-17T18:04:26.719Z,100.00
2023-12-17T18:07:29.558Z,100.00
2023-12-17T18:10:32.353Z,100.00
2023-12-17T18:13:35.787Z,100.00
2023-12-17T18:16:40.074Z,100.00
2023-12-17T18:19:45.327Z,100.00
2023-12-17T18:22:48.126Z,100.00
2023-12-17T18:25:50.857Z,100.00
2023-12-17T18:28:55.534Z,100.00
2023-12-17T18:31:59.741Z,100.00
2023-12-17T18:35:02.476Z,100.00
2023-12-17T18:38:05.797Z,100.00
2023-12-17T18:41:09.007Z,100.00
2023-12-17T18:44:11.792Z,100.00
2023-12-17T18:47:16.064Z,100.00
2023-12-17T18:50:18.830Z,100.00
2023-12-17T18:53:21.790Z,100.00
2023-12-17T18:56:24.604Z,100.00
2023-12-17T18:59:27.370Z,100.00
2023-12-17T19:02:32.006Z,100.00
2023-12-17T19:05:34.818Z,100.00
2023-12-17T19:08:38.287Z,100.00
2023-12-17T19:11:41.599Z,100.00
2023-12-17T19:14:44.344Z,100.00
2023-12-17T19:17:48.534Z,100.00
2023-12-17T19:20:51.359Z,100.00
2023-12-17T19:23:54.917Z,100.00
2023-12-17T19:26:57.861Z,100.00
2023-12-17T19:30:01.336Z,100.00
2023-12-17T19:33:10.473Z,100.00
2023-12-17T19:36:15.432Z,100.00
2023-12-17T19:39:18.478Z,100.00
2023-12-17T19:42:23.057Z,100.00
2023-12-17T19:45:26.468Z,100.00
2023-12-17T19:48:31.957Z,100.00
2023-12-17T19:51:35.082Z,100.00
2023-12-17T19:54:39.780Z,100.00
2023-12-17T19:57:42.933Z,100.00
2023-12-17T20:00:45.853Z,100.00
2023-12-17T20:03:52.243Z,100.00
2023-12-17T20:06:55.671Z,100.00
2023-12-17T20:09:58.567Z,100.00
2023-12-17T20:13:01.628Z,100.00
2023-12-17T20:16:05.973Z,100.00
2023-12-17T20:19:10.796Z,100.00
2023-12-17T20:22:13.783Z,100.00
2023-12-17T20:25:16.636Z,100.00
2023-12-17T20:28:19.546Z,99.62
2023-12-17T20:31:22.425Z,99.33
2023-12-17T20:34:26.827Z,99.49
2023-12-17T20:37:29.831Z,100.00
2023-12-17T20:40:32.865Z,100.00
2023-12-17T20:43:35.793Z,100.00
2023-12-17T20:46:38.584Z,100.00
2023-12-17T20:49:42.725Z,100.00
2023-12-17T20:52:45.531Z,100.00
2023-12-17T20:55:48.297Z,100.00
2023-12-17T20:58:53.152Z,100.00
2023-12-17T21:01:56.156Z,100.00
2023-12-17T21:05:02.012Z,100.00
2023-12-17T21:08:05.320Z,100.00
2023-12-17T21:11:08.661Z,100.00
2023-12-17T21:14:11.434Z,100.00
2023-12-17T21:17:14.314Z,100.00
2023-12-17T21:20:18.589Z,100.00
2023-12-17T21:23:21.473Z,100.00
2023-12-17T21:26:25.397Z,100.00
2023-12-17T21:29:28.806Z,100.00
2023-12-17T21:32:31.620Z,100.00
2023-12-17T21:35:37.800Z,100.00
2023-12-17T21:38:41.536Z,100.00
2023-12-17T21:41:44.514Z,100.00
2023-12-17T21:44:47.436Z,100.00
2023-12-17T21:47:51.137Z,100.00
2023-12-17T21:50:58.325Z,100.00
2023-12-17T21:54:01.418Z,100.00
2023-12-17T21:57:17.441Z,100.00
2023-12-17T22:00:21.951Z,100.00
2023-12-17T22:03:24.800Z,100.00
2023-12-17T22:06:29.165Z,100.00
2023-12-17T22:09:33.260Z,100.00
2023-12-17T22:12:36.976Z,100.00
2023-12-17T22:15:40.020Z,100.00
2023-12-17T22:18:44.956Z,100.00
2023-12-17T22:21:49.980Z,100.00
2023-12-17T22:24:52.732Z,100.00
2023-12-17T22:27:55.561Z,100.00
2023-12-17T22:30:58.560Z,100.00
2023-12-17T22:34:01.597Z,100.00
2023-12-17T22:37:07.779Z,100.00
2023-12-17T22:40:11.364Z,100.00
2023-12-17T22:43:14.327Z,100.00
2023-12-17T22:46:20.184Z,100.00
2023-12-17T22:49:23.235Z,100.00
2023-12-17T22:52:28.198Z,100.00
2023-12-17T22:55:31.832Z,100.00
2023-12-17T22:58:34.756Z,100.00
2023-12-17T23:01:38.287Z,100.00
2023-12-17T23:04:43.090Z,100.00
2023-12-17T23:07:47.582Z,100.00
2023-12-17T23:10:52.085Z,100.00
2023-12-17T23:13:55.136Z,100.00
2023-12-17T23:16:58.167Z,100.00
2023-12-17T23:20:00.988Z,100.00
2023-12-17T23:23:05.474Z,100.00
2023-12-17T23:26:08.540Z,100.00
2023-12-17T23:29:11.648Z,100.00
2023-12-17T23:32:21.954Z,100.00
2023-12-17T23:35:31.188Z,100.00
2023-12-17T23:38:35.371Z,100.00
2023-12-17T23:41:38.148Z,100.00
2023-12-17T23:44:40.856Z,100.00
2023-12-17T23:47:43.974Z,100.00
2023-12-17T23:50:47.145Z,100.00
2023-12-17T23:53:52.510Z,100.00
2023-12-17T23:56:55.291Z,100.00
2023-12-17T23:59:58.053Z,100.00
